Time;durP1;ratioP1;P1;durP2;ratioP2;P2;SDS_P1;SDS_P2;PMS_P1;PMS_P2;Temp;Humidity;BMP_temperature;BMP_pressure;BME280_temperature;BME280_humidity;BME280_pressure;Samples;Min_cycle;Max_cycle;Signal;HPM_P1;HPM_P2
2023/09/12 00:01:56;;;;;;;52.33;28.10;;;;;;;;;;5002704;28;20179;-67
2023/09/12 00:04:21;;;;;;;55.35;30.42;;;;;;;;;;5005988;28;20229;-65
2023/09/12 00:06:47;;;;;;;44.55;28.92;;;;;;;;;;5003863;28;20186;-66
2023/09/12 00:09:12;;;;;;;55.50;31.55;;;;;;;;;;5009615;28;20202;-67
2023/09/12 00:11:37;;;;;;;60.63;32.17;;;;;;;;;;5006876;28;20241;-67
2023/09/12 00:14:02;;;;;;;63.05;32.80;;;;;;;;;;4998779;28;20219;-67
2023/09/12 00:16:28;;;;;;;50.97;30.20;;;;;;;;;;5002613;28;20179;-67
2023/09/12 00:18:53;;;;;;;58.08;33.45;;;;;;;;;;5012432;28;20221;-66
2023/09/12 00:21:18;;;;;;;62.80;33.70;;;;;;;;;;5007003;28;20172;-66
2023/09/12 00:23:43;;;;;;;52.47;29.40;;;;;;;;;;5004816;28;20236;-67
2023/09/12 00:26:09;;;;;;;51.72;30.75;;;;;;;;;;4999171;28;20182;-66
2023/09/12 00:28:34;;;;;;;50.85;27.83;;;;;;;;;;5011293;28;20207;-66
2023/09/12 00:30:59;;;;;;;50.65;28.40;;;;;;;;;;5007506;28;20232;-65
2023/09/12 00:33:24;;;;;;;53.22;31.52;;;;;;;;;;5010023;28;20214;-65
2023/09/12 00:35:50;;;;;;;56.00;30.27;;;;;;;;;;5009271;28;20178;-66
2023/09/12 00:38:15;;;;;;;51.42;30.58;;;;;;;;;;5010934;28;20674;-66
2023/09/12 00:40:40;;;;;;;52.42;31.13;;;;;;;;;;5006678;28;20179;-66
2023/09/12 00:43:05;;;;;;;61.30;31.90;;;;;;;;;;5007015;28;20187;-66
2023/09/12 00:45:31;;;;;;;57.00;31.70;;;;;;;;;;5007810;28;20185;-66
2023/09/12 00:47:57;;;;;;;65.10;34.08;;;;;;;;;;5004434;28;20198;-66
2023/09/12 00:50:23;;;;;;;61.28;32.47;;;;;;;;;;5005909;28;20261;-66
2023/09/12 00:52:49;;;;;;;67.55;34.33;;;;;;;;;;5004589;28;20222;-66
2023/09/12 00:55:14;;;;;;;61.67;32.33;;;;;;;;;;5008708;28;20175;-66
2023/09/12 00:57:40;;;;;;;68.15;35.13;;;;;;;;;;5003421;28;20208;-66
2023/09/12 01:00:12;;;;;;;54.63;30.08;;;;;;;;;;5008330;28;20511;-67
2023/09/12 01:02:37;;;;;;;69.78;35.65;;;;;;;;;;5004581;28;20175;-66
2023/09/12 01:05:04;;;;;;;56.28;30.75;;;;;;;;;;5006597;28;20233;-68
2023/09/12 01:07:29;;;;;;;45.33;27.00;;;;;;;;;;5008881;28;20199;-66
2023/09/12 01:09:55;;;;;;;53.40;30.60;;;;;;;;;;5007932;28;20708;-67
2023/09/12 01:12:20;;;;;;;59.05;32.42;;;;;;;;;;5011323;28;20185;-67
2023/09/12 01:14:45;;;;;;;56.67;30.70;;;;;;;;;;5006232;28;20262;-67
2023/09/12 01:17:10;;;;;;;48.58;29.15;;;;;;;;;;4999138;28;20179;-67
2023/09/12 01:19:36;;;;;;;45.85;26.88;;;;;;;;;;5008016;28;20182;-67
2023/09/12 01:22:21;;;;;;;35.03;20.75;;;;;;;;;;5002938;28;20180;-67
2023/09/12 01:24:55;;;;;;;31.13;19.33;;;;;;;;;;4999211;28;20182;-67
2023/09/12 01:27:22;;;;;;;28.40;18.35;;;;;;;;;;4996926;28;20241;-66
2023/09/12 01:29:49;;;;;;;29.88;20.08;;;;;;;;;;5004891;28;20175;-67
2023/09/12 01:32:14;;;;;;;30.95;20.42;;;;;;;;;;5004273;28;20183;-67
2023/09/12 01:34:39;;;;;;;28.77;19.15;;;;;;;;;;5007598;28;20211;-66
2023/09/12 01:37:05;;;;;;;26.35;17.98;;;;;;;;;;5002943;28;20278;-66
2023/09/12 01:39:30;;;;;;;30.98;20.60;;;;;;;;;;4998265;28;20549;-66
2023/09/12 01:41:58;;;;;;;32.35;20.67;;;;;;;;;;5003613;28;20168;-66
2023/09/12 01:44:24;;;;;;;35.88;21.15;;;;;;;;;;5007842;28;20470;-67
2023/09/12 01:46:52;;;;;;;39.25;21.77;;;;;;;;;;5007987;28;20179;-67
2023/09/12 01:49:19;;;;;;;47.28;25.58;;;;;;;;;;5009670;28;20352;-66
2023/09/12 01:51:44;;;;;;;44.88;24.55;;;;;;;;;;4999574;28;20187;-66
2023/09/12 01:54:10;;;;;;;44.55;25.85;;;;;;;;;;5003483;28;20207;-67
2023/09/12 01:56:36;;;;;;;46.85;27.85;;;;;;;;;;5005843;28;20205;-67
2023/09/12 01:59:02;;;;;;;48.45;26.85;;;;;;;;;;5022870;23;20263;-74
2023/09/12 02:01:27;;;;;;;46.95;29.63;;;;;;;;;;5000671;28;20260;-73
2023/09/12 02:03:52;;;;;;;49.63;29.10;;;;;;;;;;5013604;28;20244;-72
2023/09/12 02:06:17;;;;;;;49.95;29.55;;;;;;;;;;5001349;28;20235;-73
2023/09/12 02:08:43;;;;;;;60.30;32.20;;;;;;;;;;4995759;28;20200;-72
2023/09/12 02:11:08;;;;;;;47.92;27.67;;;;;;;;;;4984618;28;20625;-72
2023/09/12 02:13:33;;;;;;;59.13;30.50;;;;;;;;;;4985700;28;20637;-72
2023/09/12 02:15:59;;;;;;;51.72;30.08;;;;;;;;;;4993837;28;20279;-72
2023/09/12 02:18:24;;;;;;;53.38;32.22;;;;;;;;;;4994392;28;20196;-72
2023/09/12 02:20:49;;;;;;;47.38;28.02;;;;;;;;;;4993872;28;20210;-73
2023/09/12 02:23:15;;;;;;;76.55;34.20;;;;;;;;;;4994752;28;20179;-73
2023/09/12 02:25:40;;;;;;;62.75;33.20;;;;;;;;;;4994817;28;20176;-72
2023/09/12 02:28:05;;;;;;;62.88;33.53;;;;;;;;;;4982135;28;20202;-73
2023/09/12 02:30:30;;;;;;;66.68;32.95;;;;;;;;;;4990003;28;20196;-73
2023/09/12 02:32:55;;;;;;;60.75;35.00;;;;;;;;;;4992535;28;20207;-73
2023/09/12 02:35:21;;;;;;;60.25;33.25;;;;;;;;;;4991524;28;20183;-73
2023/09/12 02:37:46;;;;;;;58.75;32.58;;;;;;;;;;5006772;28;20239;-73
2023/09/12 02:40:11;;;;;;;54.78;31.90;;;;;;;;;;4992806;28;20183;-73
2023/09/12 02:42:37;;;;;;;55.78;29.60;;;;;;;;;;4993225;28;20666;-73
2023/09/12 02:45:03;;;;;;;46.35;28.42;;;;;;;;;;4991680;28;20542;-73
2023/09/12 02:47:28;;;;;;;49.17;28.50;;;;;;;;;;4982748;28;20641;-73
2023/09/12 02:49:53;;;;;;;48.10;28.33;;;;;;;;;;4991333;28;20176;-71
2023/09/12 02:52:18;;;;;;;48.38;27.95;;;;;;;;;;4992100;28;20240;-73
2023/09/12 02:54:43;;;;;;;45.30;27.48;;;;;;;;;;4989829;28;20282;-74
2023/09/12 02:57:09;;;;;;;47.83;28.27;;;;;;;;;;4990656;28;20176;-72
2023/09/12 02:59:34;;;;;;;41.47;24.88;;;;;;;;;;4991687;28;20226;-71
2023/09/12 03:01:59;;;;;;;37.60;23.67;;;;;;;;;;4990543;28;20262;-74
2023/09/12 03:04:25;;;;;;;46.75;29.02;;;;;;;;;;4992478;28;20207;-73
2023/09/12 03:06:50;;;;;;;35.97;23.50;;;;;;;;;;4991084;28;20216;-73
2023/09/12 03:09:17;;;;;;;32.33;22.00;;;;;;;;;;4990503;28;20206;-74
2023/09/12 03:11:42;;;;;;;31.00;22.65;;;;;;;;;;4988002;28;20192;-73
2023/09/12 03:14:07;;;;;;;32.78;22.27;;;;;;;;;;4992203;28;20192;-74
2023/09/12 03:16:32;;;;;;;29.88;22.05;;;;;;;;;;4993988;28;20643;-73
2023/09/12 03:18:58;;;;;;;27.27;19.35;;;;;;;;;;4991030;28;20591;-73
2023/09/12 03:21:23;;;;;;;28.88;22.17;;;;;;;;;;4991400;28;20654;-74
2023/09/12 03:23:48;;;;;;;31.10;21.90;;;;;;;;;;4986485;28;20187;-73
2023/09/12 03:26:14;;;;;;;42.55;24.85;;;;;;;;;;4988241;28;20572;-73
2023/09/12 03:28:41;;;;;;;33.63;22.33;;;;;;;;;;4991117;28;20678;-73
2023/09/12 03:31:13;;;;;;;34.40;21.42;;;;;;;;;;4979342;28;20172;-73
2023/09/12 03:33:39;;;;;;;30.75;21.50;;;;;;;;;;4989449;28;20290;-73
2023/09/12 03:36:05;;;;;;;32.92;22.45;;;;;;;;;;4993466;28;20175;-73
2023/09/12 03:38:30;;;;;;;37.45;22.95;;;;;;;;;;4992017;28;20196;-73
2023/09/12 03:40:55;;;;;;;37.40;22.92;;;;;;;;;;4977360;28;20180;-73
2023/09/12 03:43:20;;;;;;;38.10;22.88;;;;;;;;;;4979650;28;20179;-73
2023/09/12 03:45:46;;;;;;;39.88;24.55;;;;;;;;;;4979054;28;20183;-74
2023/09/12 03:48:11;;;;;;;39.28;22.58;;;;;;;;;;4984732;28;20196;-73
2023/09/12 03:50:36;;;;;;;42.03;25.13;;;;;;;;;;4985681;28;20241;-73
2023/09/12 03:53:01;;;;;;;35.92;20.45;;;;;;;;;;4983554;28;20239;-73
2023/09/12 03:55:27;;;;;;;44.15;25.42;;;;;;;;;;4988622;28;20167;-74
2023/09/12 03:57:52;;;;;;;34.22;22.83;;;;;;;;;;4988184;28;20269;-72
2023/09/12 04:00:17;;;;;;;43.47;24.75;;;;;;;;;;4978172;28;20187;-72
2023/09/12 04:02:43;;;;;;;39.70;23.30;;;;;;;;;;4981743;28;20173;-72
2023/09/12 04:05:09;;;;;;;54.25;27.40;;;;;;;;;;4983259;28;20175;-73
2023/09/12 04:07:34;;;;;;;55.58;28.38;;;;;;;;;;4986361;28;20168;-73
2023/09/12 04:09:59;;;;;;;65.13;30.92;;;;;;;;;;4984433;28;20757;-73
2023/09/12 04:12:24;;;;;;;54.30;29.67;;;;;;;;;;4993105;28;20603;-73
2023/09/12 04:14:51;;;;;;;52.28;27.90;;;;;;;;;;4993366;28;20207;-73
2023/09/12 04:17:16;;;;;;;50.58;27.02;;;;;;;;;;4986978;28;20176;-73
2023/09/12 04:19:41;;;;;;;57.63;28.48;;;;;;;;;;4990778;28;20298;-73
2023/09/12 04:22:06;;;;;;;58.38;28.17;;;;;;;;;;4991979;28;20187;-74
2023/09/12 04:24:32;;;;;;;56.75;29.58;;;;;;;;;;4989976;28;20180;-73
2023/09/12 04:26:57;;;;;;;54.75;28.77;;;;;;;;;;4985975;28;20618;-74
2023/09/12 04:29:22;;;;;;;61.70;28.80;;;;;;;;;;4991568;28;20698;-73
2023/09/12 04:31:47;;;;;;;53.50;29.17;;;;;;;;;;4990499;28;20714;-73
2023/09/12 04:34:12;;;;;;;54.08;27.67;;;;;;;;;;4991387;28;20207;-72
2023/09/12 04:36:38;;;;;;;56.33;29.05;;;;;;;;;;4990859;28;20277;-73
2023/09/12 04:39:03;;;;;;;63.00;31.67;;;;;;;;;;4992085;28;20199;-73
2023/09/12 04:41:29;;;;;;;68.38;30.05;;;;;;;;;;4987734;28;20176;-72
2023/09/12 04:43:54;;;;;;;67.05;33.55;;;;;;;;;;4982331;28;20552;-73
2023/09/12 04:46:19;;;;;;;57.85;29.58;;;;;;;;;;4979882;28;20219;-72
2023/09/12 04:48:44;;;;;;;53.00;28.77;;;;;;;;;;4983902;28;20282;-73
2023/09/12 04:51:09;;;;;;;55.70;29.10;;;;;;;;;;4976726;28;20208;-73
2023/09/12 04:53:35;;;;;;;55.90;29.45;;;;;;;;;;4985547;28;20234;-73
2023/09/12 04:56:03;;;;;;;54.90;27.17;;;;;;;;;;4988467;28;20214;-73
2023/09/12 04:58:29;;;;;;;51.30;27.27;;;;;;;;;;4985896;28;20211;-73
2023/09/12 05:00:55;;;;;;;53.40;27.83;;;;;;;;;;4982882;28;20275;-73
2023/09/12 05:03:20;;;;;;;56.10;28.85;;;;;;;;;;4990170;28;20175;-73
2023/09/12 05:05:47;;;;;;;50.72;27.80;;;;;;;;;;4986905;28;20179;-73
2023/09/12 05:08:12;;;;;;;55.05;28.60;;;;;;;;;;4988377;28;20551;-73
2023/09/12 05:10:38;;;;;;;50.38;26.25;;;;;;;;;;4983591;28;20203;-73
2023/09/12 05:13:03;;;;;;;57.60;29.88;;;;;;;;;;4984907;28;20204;-74
2023/09/12 05:15:29;;;;;;;49.92;25.67;;;;;;;;;;4988326;28;20182;-74
2023/09/12 05:17:54;;;;;;;53.20;27.70;;;;;;;;;;4990598;28;20192;-73
2023/09/12 05:20:19;;;;;;;46.58;24.67;;;;;;;;;;4988534;28;20259;-75
2023/09/12 05:22:44;;;;;;;47.00;26.67;;;;;;;;;;4994783;28;20182;-74
2023/09/12 05:25:10;;;;;;;49.95;25.73;;;;;;;;;;4985399;28;20179;-74
2023/09/12 05:27:35;;;;;;;48.65;25.83;;;;;;;;;;4996899;28;20179;-72
2023/09/12 05:30:00;;;;;;;46.47;24.77;;;;;;;;;;4991438;28;20184;-74
2023/09/12 05:32:25;;;;;;;51.53;25.73;;;;;;;;;;4992643;28;20179;-74
2023/09/12 05:34:51;;;;;;;53.25;27.02;;;;;;;;;;4990129;28;20211;-74
2023/09/12 05:37:16;;;;;;;46.47;24.90;;;;;;;;;;4990402;28;20176;-74
2023/09/12 05:39:41;;;;;;;45.78;24.02;;;;;;;;;;4990642;28;20176;-74
2023/09/12 05:42:07;;;;;;;44.22;23.17;;;;;;;;;;4992916;28;20563;-74
2023/09/12 05:44:32;;;;;;;43.67;24.02;;;;;;;;;;4991667;28;20186;-74
2023/09/12 05:46:57;;;;;;;40.47;23.02;;;;;;;;;;4991688;28;20179;-73
2023/09/12 05:49:23;;;;;;;47.97;26.63;;;;;;;;;;5000283;28;20187;-73
2023/09/12 05:51:48;;;;;;;43.00;23.45;;;;;;;;;;5000127;28;20199;-72
2023/09/12 05:54:14;;;;;;;38.55;23.27;;;;;;;;;;5000018;28;20196;-74
2023/09/12 05:56:39;;;;;;;44.90;23.88;;;;;;;;;;4999950;28;20168;-73
2023/09/12 05:59:05;;;;;;;40.88;22.42;;;;;;;;;;5000710;28;20242;-73
2023/09/12 06:01:30;;;;;;;43.08;23.35;;;;;;;;;;4986191;28;20183;-73
2023/09/12 06:03:56;;;;;;;35.67;21.65;;;;;;;;;;4996733;28;20182;-73
2023/09/12 06:06:22;;;;;;;40.30;22.63;;;;;;;;;;4995704;28;20171;-74
2023/09/12 06:08:48;;;;;;;35.53;20.08;;;;;;;;;;4998055;28;20223;-73
2023/09/12 06:11:13;;;;;;;38.75;23.63;;;;;;;;;;4997695;28;20574;-74
2023/09/12 06:13:38;;;;;;;43.38;21.42;;;;;;;;;;4999473;28;20291;-73
2023/09/12 06:16:05;;;;;;;39.25;22.13;;;;;;;;;;4999189;28;20180;-72
2023/09/12 06:18:31;;;;;;;36.88;22.00;;;;;;;;;;4989221;28;20195;-73
2023/09/12 06:20:57;;;;;;;37.25;22.85;;;;;;;;;;4996983;28;20233;-73
2023/09/12 06:23:23;;;;;;;38.78;21.83;;;;;;;;;;4999093;28;20184;-73
2023/09/12 06:25:48;;;;;;;43.80;21.70;;;;;;;;;;4999040;28;20178;-73
2023/09/12 06:28:23;;;;;;;39.05;22.20;;;;;;;;;;4993254;28;20212;-73
2023/09/12 06:30:49;;;;;;;35.75;19.45;;;;;;;;;;4989833;28;20187;-72
2023/09/12 06:33:14;;;;;;;39.80;21.08;;;;;;;;;;4988138;28;20298;-72
2023/09/12 06:35:39;;;;;;;38.13;21.58;;;;;;;;;;4981228;28;20785;-73
2023/09/12 06:38:04;;;;;;;33.87;21.63;;;;;;;;;;4985640;28;20283;-72
2023/09/12 06:40:30;;;;;;;39.58;21.08;;;;;;;;;;4987754;28;20916;-71
2023/09/12 06:42:55;;;;;;;32.58;20.58;;;;;;;;;;4990509;28;20671;-72
2023/09/12 06:45:20;;;;;;;41.80;20.33;;;;;;;;;;4984196;28;20613;-73
2023/09/12 06:47:45;;;;;;;41.40;20.23;;;;;;;;;;4989144;28;20284;-73
2023/09/12 06:50:10;;;;;;;34.40;19.77;;;;;;;;;;4988567;28;20191;-72
2023/09/12 06:52:36;;;;;;;38.97;21.30;;;;;;;;;;4987209;28;20180;-72
2023/09/12 06:55:01;;;;;;;40.97;21.73;;;;;;;;;;4987622;28;20187;-73
2023/09/12 06:57:26;;;;;;;46.08;22.63;;;;;;;;;;4993914;28;20182;-72
2023/09/12 06:59:51;;;;;;;45.67;22.58;;;;;;;;;;4993873;28;20230;-73
2023/09/12 07:02:18;;;;;;;54.67;24.30;;;;;;;;;;4993217;28;20179;-73
2023/09/12 07:04:43;;;;;;;48.65;24.83;;;;;;;;;;4992583;28;20179;-72
2023/09/12 07:07:08;;;;;;;41.35;21.95;;;;;;;;;;4992272;28;20553;-72
2023/09/12 07:09:33;;;;;;;46.25;22.88;;;;;;;;;;4994294;28;20733;-72
2023/09/12 07:11:59;;;;;;;47.42;22.63;;;;;;;;;;4990407;28;20183;-72
2023/09/12 07:14:25;;;;;;;47.95;24.10;;;;;;;;;;4986200;28;20643;-72
2023/09/12 07:16:50;;;;;;;47.65;24.58;;;;;;;;;;4993351;28;20167;-72
2023/09/12 07:19:15;;;;;;;50.55;24.08;;;;;;;;;;4991696;28;20211;-72
2023/09/12 07:21:40;;;;;;;46.60;23.48;;;;;;;;;;4992850;28;20627;-72
2023/09/12 07:24:06;;;;;;;51.00;25.48;;;;;;;;;;4993834;28;20652;-72
2023/09/12 07:26:32;;;;;;;45.10;24.60;;;;;;;;;;4993001;28;20175;-71
2023/09/12 07:28:58;;;;;;;45.03;23.60;;;;;;;;;;4992291;28;20203;-71
2023/09/12 07:31:23;;;;;;;47.08;26.27;;;;;;;;;;4993502;28;20175;-71
2023/09/12 07:33:48;;;;;;;46.05;25.20;;;;;;;;;;4993736;28;20207;-71
2023/09/12 07:36:14;;;;;;;46.72;24.00;;;;;;;;;;4993832;28;20179;-71
2023/09/12 07:38:39;;;;;;;45.67;25.10;;;;;;;;;;4992952;28;20191;-71
2023/09/12 07:41:04;;;;;;;43.22;23.80;;;;;;;;;;4993316;28;20201;-71
2023/09/12 07:43:30;;;;;;;45.22;23.75;;;;;;;;;;4993238;28;20210;-72
2023/09/12 07:45:58;;;;;;;48.88;25.00;;;;;;;;;;4993361;28;20175;-72
2023/09/12 07:48:24;;;;;;;42.30;23.55;;;;;;;;;;4992761;28;20198;-72
2023/09/12 07:50:49;;;;;;;39.63;22.23;;;;;;;;;;4982221;28;20179;-72
2023/09/12 07:53:14;;;;;;;45.92;23.90;;;;;;;;;;4993006;28;20938;-71
2023/09/12 07:55:46;;;;;;;45.95;24.15;;;;;;;;;;4989137;28;20171;-71
2023/09/12 07:58:14;;;;;;;43.38;22.67;;;;;;;;;;5032018;23;20226;-65
2023/09/12 08:00:40;;;;;;;46.25;24.02;;;;;;;;;;5002896;28;20198;-67
2023/09/12 08:03:05;;;;;;;46.83;24.33;;;;;;;;;;5006476;28;20675;-66
2023/09/12 08:05:30;;;;;;;50.83;25.35;;;;;;;;;;5005793;28;20171;-66
2023/09/12 08:07:55;;;;;;;48.67;23.63;;;;;;;;;;5004408;28;20191;-67
2023/09/12 08:10:21;;;;;;;45.35;25.20;;;;;;;;;;4991505;28;20183;-66
2023/09/12 08:12:46;;;;;;;46.63;26.38;;;;;;;;;;4989760;28;20186;-67
2023/09/12 08:15:11;;;;;;;46.78;24.83;;;;;;;;;;4990422;28;20659;-67
2023/09/12 08:17:38;;;;;;;51.30;24.77;;;;;;;;;;4988992;28;20175;-67
2023/09/12 08:20:03;;;;;;;48.63;25.13;;;;;;;;;;4989997;28;20182;-67
2023/09/12 08:22:28;;;;;;;47.28;24.40;;;;;;;;;;4990802;28;20251;-67
2023/09/12 08:24:54;;;;;;;43.75;25.17;;;;;;;;;;4989885;28;20651;-66
2023/09/12 08:27:19;;;;;;;45.45;25.15;;;;;;;;;;4979570;28;20183;-66
2023/09/12 08:29:47;;;;;;;48.95;28.77;;;;;;;;;;4985416;28;20658;-66
2023/09/12 08:32:12;;;;;;;47.65;26.13;;;;;;;;;;4970837;28;20267;-66
2023/09/12 08:34:37;;;;;;;42.17;25.23;;;;;;;;;;4989456;28;20298;-67
2023/09/12 08:37:03;;;;;;;48.63;26.45;;;;;;;;;;4988233;28;20255;-66
2023/09/12 08:39:39;;;;;;;47.63;27.38;;;;;;;;;;4992160;28;20741;-66
2023/09/12 08:42:04;;;;;;;39.33;25.10;;;;;;;;;;4993838;28;20168;-65
2023/09/12 08:44:29;;;;;;;45.75;24.20;;;;;;;;;;4981741;28;20610;-65
2023/09/12 08:46:55;;;;;;;46.20;27.00;;;;;;;;;;4994733;28;20172;-67
2023/09/12 08:49:20;;;;;;;48.47;26.67;;;;;;;;;;4994528;28;20691;-67
2023/09/12 08:51:45;;;;;;;39.65;25.88;;;;;;;;;;4993816;28;20436;-67
2023/09/12 08:54:10;;;;;;;44.30;25.55;;;;;;;;;;4994251;28;20294;-66
2023/09/12 08:56:39;;;;;;;44.22;25.92;;;;;;;;;;4994660;28;20171;-66
2023/09/12 08:59:04;;;;;;;41.38;26.13;;;;;;;;;;4993941;28;20220;-66
2023/09/12 09:01:33;;;;;;;44.92;24.80;;;;;;;;;;4989474;28;20196;-65
2023/09/12 09:04:02;;;;;;;43.72;25.52;;;;;;;;;;4980072;28;20720;-66
2023/09/12 09:06:28;;;;;;;40.13;24.83;;;;;;;;;;4982147;28;20660;-66
2023/09/12 09:08:53;;;;;;;40.95;24.70;;;;;;;;;;4989259;28;20192;-67
2023/09/12 09:11:18;;;;;;;43.70;24.55;;;;;;;;;;4993923;28;20739;-66
2023/09/12 09:13:44;;;;;;;40.63;24.77;;;;;;;;;;4993983;28;20203;-65
2023/09/12 09:16:09;;;;;;;42.75;24.70;;;;;;;;;;4993982;28;20172;-66
2023/09/12 09:18:49;;;;;;;40.03;24.30;;;;;;;;;;4988748;28;20682;-67
2023/09/12 09:21:17;;;;;;;37.20;25.05;;;;;;;;;;4987107;28;20441;-66
2023/09/12 09:23:46;;;;;;;42.17;24.80;;;;;;;;;;4985463;28;20203;-66
2023/09/12 09:26:11;;;;;;;40.10;24.80;;;;;;;;;;4992426;28;20662;-66
2023/09/12 09:28:36;;;;;;;38.47;23.55;;;;;;;;;;4993899;28;20195;-67
2023/09/12 09:31:04;;;;;;;41.85;24.95;;;;;;;;;;4990071;28;20194;-66
2023/09/12 09:33:34;;;;;;;36.78;23.58;;;;;;;;;;4993599;28;20683;-66
2023/09/12 09:36:04;;;;;;;38.75;22.60;;;;;;;;;;4980449;28;20212;-66
2023/09/12 09:38:29;;;;;;;36.03;21.90;;;;;;;;;;4982581;28;20204;-66
2023/09/12 09:40:55;;;;;;;35.10;22.25;;;;;;;;;;4992185;28;20263;-66
2023/09/12 09:43:20;;;;;;;33.65;21.88;;;;;;;;;;4993202;28;20182;-66
2023/09/12 09:45:46;;;;;;;35.00;23.10;;;;;;;;;;4993793;28;20319;-66
2023/09/12 09:48:17;;;;;;;30.45;22.17;;;;;;;;;;4993789;28;20261;-66
2023/09/12 09:50:42;;;;;;;34.20;21.35;;;;;;;;;;4992943;28;20172;-67
2023/09/12 09:53:10;;;;;;;32.87;20.93;;;;;;;;;;4986597;28;20618;-65
2023/09/12 09:55:35;;;;;;;32.85;19.88;;;;;;;;;;4975098;28;20929;-66
2023/09/12 09:58:00;;;;;;;29.15;19.35;;;;;;;;;;4981536;28;20278;-67
2023/09/12 10:00:28;;;;;;;30.52;20.77;;;;;;;;;;4993371;28;20222;-65
2023/09/12 10:02:53;;;;;;;32.53;20.58;;;;;;;;;;4991742;28;20179;-66
2023/09/12 10:05:20;;;;;;;31.15;19.85;;;;;;;;;;4993228;28;20180;-65
2023/09/12 10:07:50;;;;;;;33.53;19.63;;;;;;;;;;4988420;28;20163;-65
2023/09/12 10:10:16;;;;;;;29.38;19.20;;;;;;;;;;4981753;28;20568;-67
2023/09/12 10:12:53;;;;;;;29.95;20.20;;;;;;;;;;4979035;28;20175;-67
2023/09/12 10:15:19;;;;;;;30.27;20.33;;;;;;;;;;4979878;28;20265;-67
2023/09/12 10:17:46;;;;;;;28.00;19.40;;;;;;;;;;4982164;28;20184;-66
2023/09/12 10:20:24;;;;;;;29.30;19.23;;;;;;;;;;4986797;28;20381;-67
2023/09/12 10:23:13;;;;;;;27.00;18.35;;;;;;;;;;4978833;28;20184;-67
2023/09/12 10:25:39;;;;;;;26.83;18.10;;;;;;;;;;4987136;28;20175;-64
2023/09/12 10:28:04;;;;;;;25.33;17.17;;;;;;;;;;4992723;28;20801;-65
2023/09/12 10:30:30;;;;;;;26.42;19.40;;;;;;;;;;4992515;28;20259;-66
2023/09/12 10:32:56;;;;;;;30.58;18.40;;;;;;;;;;4985422;28;20253;-66
2023/09/12 10:35:22;;;;;;;24.13;16.75;;;;;;;;;;4987767;28;20187;-66
2023/09/12 10:37:48;;;;;;;28.35;17.63;;;;;;;;;;4992576;28;20179;-66
2023/09/12 10:40:15;;;;;;;29.55;19.38;;;;;;;;;;4992764;28;20180;-66
2023/09/12 10:42:41;;;;;;;28.75;20.27;;;;;;;;;;4992146;28;20273;-66
2023/09/12 10:45:08;;;;;;;27.40;18.30;;;;;;;;;;4992205;28;20543;-66
2023/09/12 10:47:34;;;;;;;28.35;18.80;;;;;;;;;;4980338;28;20192;-66
2023/09/12 10:50:01;;;;;;;24.98;18.15;;;;;;;;;;4982414;28;20259;-66
2023/09/12 10:52:27;;;;;;;23.38;16.95;;;;;;;;;;4987747;28;20187;-66
2023/09/12 10:54:52;;;;;;;26.13;16.98;;;;;;;;;;4982006;28;20557;-65
2023/09/12 10:57:17;;;;;;;24.75;19.05;;;;;;;;;;4991696;28;20179;-65
2023/09/12 11:00:02;;;;;;;21.05;16.48;;;;;;;;;;4991798;28;20736;-65
2023/09/12 11:02:37;;;;;;;20.27;14.93;;;;;;;;;;4983882;28;20175;-66
2023/09/12 11:05:06;;;;;;;22.35;16.38;;;;;;;;;;4989499;28;20203;-66
2023/09/12 11:07:40;;;;;;;22.80;16.88;;;;;;;;;;4976348;28;20233;-66
2023/09/12 11:10:15;;;;;;;22.20;17.63;;;;;;;;;;4981866;28;20685;-66
2023/09/12 11:12:41;;;;;;;24.05;16.70;;;;;;;;;;4980818;28;20539;-65
2023/09/12 11:15:07;;;;;;;23.60;16.00;;;;;;;;;;4989362;28;20207;-66
2023/09/12 11:17:42;;;;;;;22.55;16.00;;;;;;;;;;4986911;28;20756;-66
2023/09/12 11:20:10;;;;;;;24.17;18.00;;;;;;;;;;4986520;28;20263;-66
2023/09/12 11:22:39;;;;;;;25.85;15.98;;;;;;;;;;4989642;28;20179;-66
2023/09/12 11:25:15;;;;;;;21.40;16.30;;;;;;;;;;4990809;28;20190;-66
2023/09/12 11:27:53;;;;;;;24.00;17.23;;;;;;;;;;4987063;28;21202;-65
2023/09/12 11:30:18;;;;;;;22.60;15.88;;;;;;;;;;4987330;28;20266;-66
2023/09/12 11:32:44;;;;;;;21.57;16.20;;;;;;;;;;4981246;28;20271;-66
2023/09/12 11:35:10;;;;;;;23.17;16.85;;;;;;;;;;4974447;28;20577;-66
2023/09/12 11:37:39;;;;;;;21.55;16.30;;;;;;;;;;4982996;28;20212;-66
2023/09/12 11:40:23;;;;;;;19.50;15.23;;;;;;;;;;4986086;28;20635;-65
2023/09/12 11:42:52;;;;;;;21.15;15.35;;;;;;;;;;4988452;28;20248;-66
2023/09/12 11:45:17;;;;;;;20.83;14.57;;;;;;;;;;4991425;28;20180;-66
2023/09/12 11:47:43;;;;;;;22.63;16.48;;;;;;;;;;4991722;28;20561;-66
2023/09/12 11:50:25;;;;;;;23.50;16.10;;;;;;;;;;4991574;28;20183;-66
2023/09/12 11:52:50;;;;;;;27.45;17.33;;;;;;;;;;4988602;28;20167;-66
2023/09/12 11:55:21;;;;;;;23.63;16.87;;;;;;;;;;4990197;28;20287;-65
2023/09/12 11:57:47;;;;;;;21.95;16.27;;;;;;;;;;4985030;28;20437;-65
2023/09/12 12:00:13;;;;;;;24.33;18.40;;;;;;;;;;4979064;28;20631;-66
2023/09/12 12:02:38;;;;;;;22.95;17.02;;;;;;;;;;4990905;28;20851;-66
2023/09/12 12:05:04;;;;;;;19.50;14.23;;;;;;;;;;4988535;28;20175;-65
2023/09/12 12:07:29;;;;;;;19.00;15.57;;;;;;;;;;4985708;28;20180;-65
2023/09/12 12:09:55;;;;;;;21.70;16.60;;;;;;;;;;4987759;28;20590;-66
2023/09/12 12:12:20;;;;;;;18.90;14.05;;;;;;;;;;4976230;28;20677;-65
2023/09/12 12:14:46;;;;;;;19.45;14.70;;;;;;;;;;4983852;28;20199;-66
2023/09/12 12:17:11;;;;;;;17.98;13.38;;;;;;;;;;4992802;28;20191;-66
2023/09/12 12:19:37;;;;;;;19.05;14.15;;;;;;;;;;4987154;28;20203;-67
2023/09/12 12:22:03;;;;;;;17.15;12.13;;;;;;;;;;4994858;28;20190;-66
2023/09/12 12:24:36;;;;;;;17.23;12.43;;;;;;;;;;4995131;28;20202;-66
2023/09/12 12:27:02;;;;;;;21.08;14.45;;;;;;;;;;4995135;28;20197;-66
2023/09/12 12:29:28;;;;;;;17.13;12.80;;;;;;;;;;4992468;28;20203;-67
2023/09/12 12:31:53;;;;;;;15.27;12.70;;;;;;;;;;4986972;28;20634;-65
2023/09/12 12:34:21;;;;;;;19.73;14.53;;;;;;;;;;4994782;28;20221;-66
2023/09/12 12:36:46;;;;;;;18.92;14.85;;;;;;;;;;4994647;28;20475;-65
2023/09/12 12:39:12;;;;;;;18.37;14.33;;;;;;;;;;4993438;28;20685;-66
2023/09/12 12:41:38;;;;;;;20.92;15.95;;;;;;;;;;4994209;28;20171;-66
2023/09/12 12:44:04;;;;;;;20.97;15.67;;;;;;;;;;4993277;28;20209;-66
2023/09/12 12:46:30;;;;;;;23.98;15.40;;;;;;;;;;4981856;28;20436;-66
2023/09/12 12:48:55;;;;;;;20.77;15.77;;;;;;;;;;4990884;28;20202;-66
2023/09/12 12:51:22;;;;;;;24.60;16.50;;;;;;;;;;4983860;28;20736;-66
2023/09/12 12:53:51;;;;;;;18.17;14.10;;;;;;;;;;4985335;28;20615;-67
2023/09/12 12:56:18;;;;;;;19.50;15.18;;;;;;;;;;4989295;28;20175;-66
2023/09/12 12:58:55;;;;;;;20.27;15.00;;;;;;;;;;4992545;28;20214;-66
2023/09/12 13:01:20;;;;;;;19.20;13.73;;;;;;;;;;4993272;28;20580;-66
2023/09/12 13:03:45;;;;;;;21.75;14.15;;;;;;;;;;4987117;28;20274;-66
2023/09/12 13:06:14;;;;;;;16.58;13.65;;;;;;;;;;4983563;28;20236;-66
2023/09/12 13:08:42;;;;;;;20.45;16.15;;;;;;;;;;4984226;28;20212;-65
2023/09/12 13:11:08;;;;;;;21.45;14.70;;;;;;;;;;4999109;28;20621;-66
2023/09/12 13:13:33;;;;;;;24.80;15.55;;;;;;;;;;4993034;28;20203;-65
2023/09/12 13:15:58;;;;;;;19.00;14.73;;;;;;;;;;4994216;28;20234;-65
2023/09/12 13:18:23;;;;;;;19.58;15.10;;;;;;;;;;4992639;28;20199;-65
2023/09/12 13:20:49;;;;;;;21.23;14.15;;;;;;;;;;4985186;28;20187;-67
2023/09/12 13:23:14;;;;;;;18.03;14.03;;;;;;;;;;4992674;28;20191;-66
2023/09/12 13:25:39;;;;;;;17.90;12.10;;;;;;;;;;4993484;28;20409;-66
2023/09/12 13:28:04;;;;;;;16.13;11.33;;;;;;;;;;4993789;28;20290;-65
2023/09/12 13:30:29;;;;;;;13.02;9.95;;;;;;;;;;4994523;28;20416;-65
2023/09/12 13:32:55;;;;;;;16.13;10.43;;;;;;;;;;4993038;28;20560;-66
2023/09/12 13:35:20;;;;;;;14.63;9.40;;;;;;;;;;4985589;28;20779;-64
2023/09/12 13:37:45;;;;;;;12.53;8.67;;;;;;;;;;4993888;28;20900;-64
2023/09/12 13:40:11;;;;;;;14.77;9.63;;;;;;;;;;4983582;28;20429;-65
2023/09/12 13:42:36;;;;;;;13.68;9.85;;;;;;;;;;4990553;28;20279;-65
2023/09/12 13:45:02;;;;;;;13.97;9.07;;;;;;;;;;4993649;28;20187;-65
2023/09/12 13:47:27;;;;;;;16.05;11.35;;;;;;;;;;4978947;28;20480;-65
2023/09/12 13:49:53;;;;;;;15.40;11.03;;;;;;;;;;4988468;28;20213;-68
2023/09/12 13:52:19;;;;;;;17.65;13.10;;;;;;;;;;4993740;28;20544;-66
2023/09/12 13:54:44;;;;;;;20.55;14.43;;;;;;;;;;4993167;28;20211;-66
2023/09/12 13:57:09;;;;;;;15.17;11.13;;;;;;;;;;4989072;28;20180;-66
2023/09/12 13:59:35;;;;;;;16.63;12.13;;;;;;;;;;5024741;23;20488;-71
2023/09/12 14:02:00;;;;;;;20.97;12.97;;;;;;;;;;5000622;28;20441;-71
2023/09/12 14:04:25;;;;;;;18.83;12.70;;;;;;;;;;5002840;28;20424;-71
2023/09/12 14:06:51;;;;;;;16.83;12.00;;;;;;;;;;4998907;28;20647;-70
2023/09/12 14:09:16;;;;;;;14.68;9.88;;;;;;;;;;4999785;28;20845;-71
2023/09/12 14:11:43;;;;;;;17.27;11.20;;;;;;;;;;4991624;28;20330;-71